Mansfield, Pennsylvania
Current Conditions -  °F | °C
As of 4:55 AM on Thursday 23 Oct 2014 (Local Time) from KN38 Reporting Station
Overcast Overcast  
Wind Chill: 38°   Ceiling: 1500
Heat Index: 45°   Visibility: 10mi
Dew Point: 41°   Wind: 15mph
Humidity: 87%   Direction: 350°N
Pressure: 29.99"   Gusts: 21mph
Location:  41.81°N, 77.08°W
Report Text: KN38 230855Z AUTO 35013G18KT 10SM OVC015 07/05 A2999 RMK AO2
Loading
Personal Weather Stations






























Interactive Weather Map
Tropical Storm Tracking
New forecast layout! Learn more

10-Day Weather Forecast

Advertisements
Track Severe Weather on mobile